ThomasiCamargo Heliport

BR-0130 · Río de Janeiro, Brasil

METAR pasados BR-0130 · ThomasiCamargo Heliport

A continuación puedes ver los METAR de los últimos días. Selecciona un año para ver los METAR más antiguos, desde el año 2007 en adelante.

26 de mayo de 2024

Hora Código Tiempo Temp. Visibilidad Cielo nuboso Viento METAR/SPECI
09:00
V
25 °C 10 km+ - 200° 200° 5 kt METAR SBCP 261200Z 20005KT 9999 FEW020 SCT080 25/19 Q1021
08:00
V
23 °C 10 km+ - 210° 210° 8 kt METAR SBCP 261100Z 21008KT CAVOK 23/19 Q1020
07:00
M
22 °C 10 km+ 1.500 ft 210° 210° 6 kt METAR SBCP 261000Z 21006KT 9999 BKN015 BKN100 22/18 Q1020
06:15
M
22 °C 10 km+ 1.500 ft 220° 220° 7 kt METAR SBCP 260915Z 22007KT 9999 BKN015 BKN100 22/18 Q1020

25 de mayo de 2024

Hora Código Tiempo Temp. Visibilidad Cielo nuboso Viento METAR/SPECI
21:00
V
24 °C 10 km+ - 190° 190° 8 kt METAR SBCP 260000Z 19008KT CAVOK 24/20 Q1020
20:00
V
24 °C 10 km+ - 180° 180° 10 kt METAR SBCP 252300Z 18010KT CAVOK 24/20 Q1019
19:00
V
24 °C 10 km+ - 170° 170° 11 kt METAR SBCP 252200Z 17011KT CAVOK 24/21 Q1019
18:00
V
25 °C 10 km+ - 180° 180° 14 kt METAR SBCP 252100Z 18014KT CAVOK 25/21 Q1018
17:00
V
25 °C 10 km+ - 180° 180° 15 kt METAR SBCP 252000Z 18015KT 9999 SCT020 25/21 Q1017
16:00
V
26 °C 10 km+ - 180° 180° 19 kt METAR SBCP 251900Z 18019KT 9999 SCT020 26/21 Q1016
15:00
V
28 °C 10 km+ - 160° 160° 18 kt METAR SBCP 251800Z 16018KT CAVOK 28/20 Q1015
14:00
V
29 °C 10 km+ - 200° 200° 14 kt METAR SBCP 251700Z 20014KT CAVOK 29/20 Q1015
13:00
V
30 °C 10 km+ - 160° 160° 15 kt METAR SBCP 251600Z 16015KT CAVOK 30/19 Q1016
12:00
V
30 °C 10 km+ - 190° 190° 18 kt METAR SBCP 251500Z 19018KT CAVOK 30/19 Q1016
11:00
V
29 °C 10 km+ - 190° 190° 15 kt METAR SBCP 251400Z 19015KT 9999 FEW020 29/18 Q1017
10:00
V
28 °C 10 km+ - 190° 190° 11 kt METAR SBCP 251300Z 19011KT 9999 FEW020 28/21 Q1017
09:00
V
24 °C 10 km+ - 210° 210° 8 kt METAR SBCP 251200Z 21008KT 9999 FEW020 SCT100 24/21 Q1017
08:00
V
23 °C 10 km+ 10.000 ft 250° 250° 3 kt METAR SBCP 251100Z 25003KT 9999 FEW020 BKN100 23/20 Q1016
07:00
V
22 °C 10 km+ - 030° 030° 3 kt METAR SBCP 251000Z 03003KT CAVOK 22/20 Q1014
06:15
V
21 °C 10 km+ - 040° 040° 4 kt METAR SBCP 250915Z 04004KT CAVOK 21/20 Q1014

24 de mayo de 2024

Hora Código Tiempo Temp. Visibilidad Cielo nuboso Viento METAR/SPECI
21:00
V
23 °C 10 km+ - 080° 080° 4 kt METAR SBCP 250000Z 08004KT CAVOK 23/21 Q1013
20:00
V
24 °C 10 km+ - 070° 070° 4 kt METAR SBCP 242300Z 07004KT CAVOK 24/21 Q1013
19:00
V
25 °C 10 km+ - 040° 040° 6 kt METAR SBCP 242200Z 04006KT CAVOK 25/22 Q1013
18:00
V
26 °C 10 km+ - 060° 060° 6 kt METAR SBCP 242100Z 06006KT CAVOK 26/22 Q1012
17:00
V
29 °C 10 km+ - 050° 050° 5 kt METAR SBCP 242000Z 05005KT CAVOK 29/22 Q1012
16:00
V
33 °C 10 km+ - 290° 290° 8 kt METAR SBCP 241900Z 29008KT CAVOK 33/18 Q1011
15:00
V
33 °C 10 km+ - 320° 320° 10 kt METAR SBCP 241800Z 32010KT CAVOK 33/19 Q1011
14:00
V
33 °C 10 km+ - 320° 320° 10 kt METAR SBCP 241700Z 32010KT CAVOK 33/19 Q1012
13:00
V
32 °C 10 km+ - 330° 330° 11 kt METAR SBCP 241600Z 33011KT CAVOK 32/18 Q1012
12:00
V
31 °C 10 km+ - 330° 330° 12 kt METAR SBCP 241500Z 33012KT CAVOK 31/17 Q1013
11:00
V
30 °C 10 km+ - 310° 310° 9 kt METAR SBCP 241400Z 31009KT CAVOK 30/18 Q1014
10:00
V
29 °C 10 km+ - 330° 330° 11 kt METAR SBCP 241300Z 33011KT CAVOK 29/18 Q1015
09:00
V
27 °C 10 km+ - 360° 360° 8 kt METAR SBCP 241200Z 36008KT CAVOK 27/20 Q1015
08:00
V
24 °C 10 km+ - 020° 020° 7 kt METAR SBCP 241100Z 02007KT CAVOK 24/21 Q1015
07:00
V
21 °C 10 km+ - 020° 020° 6 kt METAR SBCP 241000Z 02006KT CAVOK 21/20 Q1015
06:15
V
20 °C 10 km+ - 020° 020° 7 kt METAR SBCP 240915Z 02007KT CAVOK 20/20 Q1014
Cambiar esta información